Flight Track Log - Related Links

Times and Time Zones

All times are in EDT time to prevent confusion due to time zone crossing. See the N244A flight status page for this flight to view local times or setup timezone preferences in your user account.

Time Position Orientation Groundspeed Altitude Reporting Facility
EDT Latitude Longitude Course Direction KTS MPH feet Rate Location/Type
Mon 10:27:56 AM 40.8000 -73.4500 237° Southwest 167 192 2,100  Level New TRACON
Mon 10:28:55 AM 40.7667 -73.5000 229° Southwest 209 241 3,900 1,642 Climbing New TRACON
Mon 10:30:00 AM 40.7703 -73.6553 237° Southwest  Level Estimated
Mon 10:30:55 AM 40.6667 -73.6500 237° Southwest 254 292 7,000  Level New TRACON
Mon 10:31:55 AM 40.6667 -73.7333 270° West 233 268 7,900 500 Climbing New TRACON
Mon 10:32:00 AM 40.3721 -74.1086 229° Southwest  Level FlightAware
Mon 10:32:55 AM 40.6333 -73.8167 242° Southwest 364 419 8,000  Level New TRACON
Mon 10:33:00 AM 40.3186 -74.2296 237° Southwest  Level FlightAware
Mon 10:33:55 AM 40.5833 -73.8833 225° Southwest 242 278 8,000  Level New TRACON
Mon 10:35:29 AM 40.4975 -73.9725 218° Southwest 255 293 9,900 1,169 Climbing New Center
Mon 10:36:29 AM 40.4353 -74.0375 218° Southwest 277 319 11,000 1,300 Climbing New Center
Mon 10:37:29 AM 40.3794 -74.0922 217° Southwest 292 336 12,500 2,300 Climbing New Center
Mon 10:38:29 AM 40.3286 -74.1931 237° Southwest 299 344 15,600 2,339 Climbing New Center
Mon 10:39:27 AM 40.2903 -74.2892 242° Southwest 323 372 17,100 1,576 Climbing New Center
Mon 10:40:27 AM 40.2475 -74.3931 242° Southwest 357 411 18,700 2,331 Climbing New Center
Mon 10:41:28 AM 40.1972 -74.5372 245° Southwest 367 422 21,800 2,656 Climbing New Center
Mon 10:42:29 AM 40.1872 -74.6536 264° West 361 415 24,100 1,934 Climbing New Center
Mon 10:43:29 AM 40.1761 -74.7969 264° West 361 415 25,700 1,475 Climbing New Center
Mon 10:44:27 AM 40.1700 -74.9133 266° West 367 422 27,000 1,373 Climbing New Center
Mon 10:45:27 AM 40.1856 -75.0636 278° West 372 428 28,400 1,091 Climbing New Center
Mon 10:46:28 AM 40.2283 -75.2022 292° West 383 441 29,200 836 Climbing New Center
Mon 10:47:29 AM 40.2375 -75.3444 275° West 388 447 30,100 857 Climbing New Center
Mon 10:48:27 AM 40.2294 -75.4933 266° West 405 466 30,900 750 Climbing New Center
Mon 10:49:29 AM 40.2294 -75.6456 270° West 411 473 31,600 787 Climbing New Center
Mon 10:50:29 AM 40.2253 -75.7975 268° West 418 481 32,500 850 Climbing New Center
Mon 10:51:29 AM 40.2153 -75.9356 265° West 418 481 33,300 454 Climbing New Center
Mon 10:52:28 AM 40.2147 -76.0850 270° West 418 481 33,400 807 Climbing New Center
Mon 10:53:28 AM 40.2100 -76.2342 268° West 418 481 34,900 1,100 Climbing New Center
Mon 10:54:28 AM 40.2072 -76.3808 269° West 418 481 35,600 744 Climbing New Center
Mon 10:55:29 AM 40.2022 -76.5297 268° West 418 481 36,400 706 Climbing New Center
Mon 10:56:27 AM 40.1992 -76.6764 268° West 413 475 37,000 559 Climbing New Center
Mon 10:57:27 AM 40.1958 -76.8228 268° West 408 470 37,500 450 Climbing New Center
Mon 10:58:27 AM 40.1908 -76.9611 267° West 401 461 37,900 248 Climbing New Center
Mon 10:59:28 AM 40.1853 -77.1072 267° West 401 461 38,000 50 Climbing New Center
Mon 11:00:28 AM 40.1811 -77.2564 268° West 401 461 38,000  Level New Center
Mon 11:02:36 AM 40.1778 -77.5803 269° West 422 486 38,000 -32 Level Cleveland Center
Mon 11:03:36 AM 40.1842 -77.7539 273° West 428 493 37,900 -300 Descending Cleveland Center
Mon 11:04:36 AM 40.1872 -77.8817 272° West 434 499 37,400 -550 Descending Cleveland Center
Mon 11:05:36 AM 40.1831 -78.0639 268° West 447 514 36,800 -550 Descending Cleveland Center
Mon 11:06:36 AM 40.1867 -78.2322 272° West 459 528 36,300 -400 Descending Cleveland Center
Mon 11:07:36 AM 40.1881 -78.4061 271° West 471 542 36,000 -150 Descending Cleveland Center
Mon 11:08:36 AM 40.1914 -78.5772 272° West 476 548 36,000  Level Cleveland Center
Mon 11:09:36 AM 40.1919 -78.7486 270° West 476 548 36,000  Level Cleveland Center
Mon 11:10:36 AM 40.1925 -78.9197 270° West 476 548 36,000  Level Cleveland Center
Mon 11:11:36 AM 40.1950 -79.0908 271° West 476 548 36,000  Level Cleveland Center
Mon 11:12:36 AM 40.1950 -79.2622 270° West 476 548 36,000  Level Cleveland Center
Mon 11:13:36 AM 40.1989 -79.4361 272° West 476 548 36,000  Level Cleveland Center
Mon 11:14:36 AM 40.1986 -79.6072 270° West 476 548 36,000  Level Cleveland Center
Mon 11:15:36 AM 40.1978 -79.7814 270° West 476 548 36,000  Level Cleveland Center
Mon 11:16:36 AM 40.1967 -79.9525 270° West 476 548 36,000  Level Cleveland Center
Mon 11:17:36 AM 40.1956 -80.1264 270° West 476 548 36,000  Level Cleveland Center
Mon 11:18:36 AM 40.1961 -80.3139 270° West 475 547 36,000  Level Cleveland Center
Mon 11:19:36 AM 40.1942 -80.4853 269° West 475 547 36,000  Level Cleveland Center
Mon 11:20:36 AM 40.1964 -80.6564 271° West 475 547 36,000  Level Cleveland Center
Mon 11:21:36 AM 40.1942 -80.8250 269° West 475 547 36,000  Level Cleveland Center
Mon 11:22:36 AM 40.1914 -80.9989 269° West 475 547 36,000  Level Cleveland Center
Mon 11:23:34 AM 40.1872 -81.1681 268° West 473 544 36,000  Level Indianapolis Center
Mon 11:24:36 AM 40.1839 -81.3400 269° West 469 540 36,000  Level Indianapolis Center
Mon 11:25:38 AM 40.1819 -81.5111 269° West 467 537 36,000  Level Indianapolis Center
Mon 11:26:40 AM 40.1789 -81.6814 269° West 464 534 36,000 -48 Level Indianapolis Center
Mon 11:27:42 AM 40.1753 -81.8322 268° West 456 525 35,900 -48 Descending Indianapolis Center
Mon 11:28:44 AM 40.1733 -82.0286 269° West 460 529 35,900  Level Indianapolis Center
Mon 11:29:46 AM 40.1689 -82.1978 268° West 461 531 35,900  Level Indianapolis Center
Mon 11:30:48 AM 40.1653 -82.3644 268° West 458 527 35,900 48 Level Indianapolis Center
Mon 11:31:50 AM 40.1617 -82.5319 268° West 458 527 36,000  Climbing Indianapolis Center
Mon 11:32:52 AM 40.1561 -82.6972 268° West 453 521 35,900 -48 Descending Indianapolis Center
Mon 11:33:54 AM 40.1528 -82.8628 269° West 452 520 35,900  Level Indianapolis Center
Mon 11:34:56 AM 40.1486 -83.0275 268° West 452 520 35,900  Level Indianapolis Center
Mon 11:35:58 AM 40.1428 -83.2217 268° West 456 525 35,900  Level Indianapolis Center
Mon 11:37:00 AM 40.1375 -83.3872 268° West 457 526 35,900  Level Indianapolis Center
Mon 11:38:02 AM 40.1331 -83.5539 268° West 461 531 35,900  Level Indianapolis Center
Mon 11:39:04 AM 40.1272 -83.7200 267° West 459 528 35,900  Level Indianapolis Center
Mon 11:40:06 AM 40.1214 -83.8856 267° West 457 526 35,900 194 Level Indianapolis Center
Mon 11:41:08 AM 40.1128 -84.0775 267° West 454 522 36,300 435 Climbing Indianapolis Center
Mon 11:42:10 AM 40.1078 -84.2406 268° West 448 516 36,800 435 Climbing Indianapolis Center
Mon 11:43:12 AM 40.1028 -84.4017 268° West 442 509 37,200 387 Climbing Indianapolis Center
Mon 11:44:14 AM 40.0939 -84.5611 266° West 438 504 37,600 387 Climbing Indianapolis Center
Mon 11:45:16 AM 40.0864 -84.7192 267° West 435 501 38,000 195 Climbing Indianapolis Center
Mon 11:46:17 AM 40.0803 -84.8789 267° West 437 503 38,000  Level Indianapolis Center
Mon 11:47:19 AM 40.0719 -85.0467 266° West 444 511 38,000  Level Indianapolis Center
Mon 11:48:21 AM 40.0656 -85.2081 267° West 448 516 38,000  Level Indianapolis Center
Mon 11:49:23 AM 40.0556 -85.3717 265° West 454 522 38,000  Level Indianapolis Center
Mon 11:50:25 AM 40.0472 -85.5700 267° West 459 528 38,000  Level Indianapolis Center
Mon 11:51:40 AM 40.0367 -85.7694 266° West 462 532 38,000  Level Indianapolis Center
Mon 11:52:42 AM 40.0278 -85.9353 266° West 462 532 38,000  Level Indianapolis Center
Mon 11:53:44 AM 40.0197 -86.1006 266° West 464 534 38,000  Level Indianapolis Center
Mon 11:54:46 AM 40.0092 -86.2992 266° West 465 535 38,000  Level Indianapolis Center
Mon 11:55:48 AM 39.9997 -86.4650 266° West 467 537 38,000  Level Indianapolis Center
Mon 11:56:50 AM 39.9894 -86.6308 265° West 466 536 38,000  Level Indianapolis Center
Mon 11:57:52 AM 39.9783 -86.7964 265° West 464 534 38,000  Level Indianapolis Center
Mon 11:58:54 AM 39.9683 -86.9608 266° West 461 531 38,000  Level Indianapolis Center
Mon 11:59:56 AM 39.9561 -87.1589 265° West 459 528 38,000  Level Indianapolis Center
Mon 12:00:58 PM 39.9439 -87.3222 264° West 458 527 38,000  Level Indianapolis Center
Mon 12:02:00 PM 39.9347 -87.4858 266° West 455 524 38,000  Level Indianapolis Center
Mon 12:03:02 PM 39.9219 -87.6478 264° West 454 522 38,000  Level Indianapolis Center
Mon 12:04:04 PM 39.9117 -87.8086 265° West 449 517 38,000  Level Indianapolis Center
Mon 12:04:51 PM 39.9025 -87.9381 265° West 447 514 38,000  Level Chicago Center
Mon 12:05:53 PM 39.8897 -88.0981 264° West 448 516 38,000  Level Chicago Center
Mon 12:06:55 PM 39.8789 -88.2622 265° West 446 513 38,000  Level Chicago Center
Mon 12:07:57 PM 39.8633 -88.4569 264° West 450 518 38,000  Level Chicago Center
Mon 12:08:59 PM 39.8522 -88.6192 265° West 449 517 38,000  Level Chicago Center
Mon 12:10:01 PM 39.8389 -88.7825 264° West 453 521 38,000  Level Chicago Center
Mon 12:11:03 PM 39.8247 -88.9442 264° West 450 518 38,000  Level Chicago Center
Mon 12:12:05 PM 39.8131 -89.1086 265° West 455 524 38,000  Level Chicago Center
Mon 12:13:07 PM 39.7983 -89.2703 263° West 451 519 38,000  Level Chicago Center
Mon 12:14:09 PM 39.7844 -89.4372 264° West 461 531 38,000  Level Chicago Center
Mon 12:15:11 PM 39.7678 -89.6344 264° West 458 527 38,000  Level Chicago Center
Mon 12:16:36 PM 39.7475 -89.8639 264° West 459 528 38,000  Level Kansas Center
Mon 12:17:38 PM 39.7328 -90.0292 263° West 460 529 38,000  Level Kansas Center
Mon 12:18:40 PM 39.7178 -90.1975 263° West 461 531 38,000  Level Kansas Center
Mon 12:19:42 PM 39.7047 -90.3633 264° West 461 531 38,000  Level Kansas Center
Mon 12:20:44 PM 39.6894 -90.5239 263° West 458 527 38,000  Level Kansas Center
Mon 12:21:46 PM 39.6722 -90.6892 262° West 460 529 38,000  Level Kansas Center
Mon 12:22:48 PM 39.6542 -90.8853 263° West 460 529 38,000  Level Kansas Center
Mon 12:23:50 PM 39.6386 -91.0464 263° West 455 524 38,000  Level Kansas Center
Mon 12:24:52 PM 39.6231 -91.2108 263° West 458 527 38,000  Level Kansas Center
Mon 12:25:55 PM 39.6028 -91.3931 262° West 462 532 38,000  Level Kansas Center
Mon 12:26:57 PM 39.5864 -91.5569 263° West 462 532 38,000  Level Kansas Center
Mon 12:27:59 PM 39.5694 -91.7200 262° West 459 528 38,000  Level Kansas Center
Mon 12:29:01 PM 39.5506 -91.8864 262° West 465 535 38,000  Level Kansas Center
Mon 12:30:03 PM 39.5336 -92.0522 263° West 466 536 38,000  Level Kansas Center
Mon 12:31:05 PM 39.5158 -92.2167 262° West 463 533 38,000  Level Kansas Center
Mon 12:32:07 PM 39.4939 -92.4192 262° West 471 542 38,000  Level Kansas Center
Mon 12:33:09 PM 39.4747 -92.5881 262° West 475 547 38,000  Level Kansas Center
Mon 12:34:11 PM 39.4547 -92.7553 261° West 473 544 38,000  Level Kansas Center
Mon 12:35:13 PM 39.4369 -92.9236 262° West 473 544 38,000  Level Kansas Center
Mon 12:36:15 PM 39.4169 -93.0900 261° West 473 544 38,000  Level Kansas Center
Mon 12:37:17 PM 39.3931 -93.2914 261° West 475 547 38,000  Level Kansas Center
Mon 12:38:19 PM 39.3722 -93.4600 261° West 476 548 38,000  Level Kansas Center
Mon 12:39:21 PM 39.3522 -93.6281 261° West 476 548 38,000  Level Kansas Center
Mon 12:40:23 PM 39.3317 -93.8089 262° West 475 547 38,000  Level Kansas Center
Mon 12:41:25 PM 39.3108 -93.9708 261° West 477 549 38,000  Level Kansas Center
Mon 12:42:27 PM 39.2875 -94.1581 261° West 475 547 38,000  Level Kansas Center
Mon 12:43:29 PM 39.2678 -94.3197 261° West 476 548 38,000  Level Kansas Center
Mon 12:44:31 PM 39.2414 -94.5053 260° West 471 542 38,000  Level Kansas Center
Mon 12:45:33 PM 39.2211 -94.6669 261° West 475 547 38,000  Level Kansas Center
Mon 12:46:35 PM 39.1958 -94.8558 260° West 487 560 38,000  Level Kansas Center
Mon 12:47:37 PM 39.1750 -95.0156 260° West 473 544 38,000 -290 Level Kansas Center
Mon 12:48:39 PM 39.1494 -95.2044 260° West 466 536 37,400 -435 Descending Kansas Center
Mon 12:49:41 PM 39.1267 -95.3717 260° West 472 543 37,100 -194 Descending Kansas Center
Mon 12:50:43 PM 39.1044 -95.5322 260° West 472 543 37,000 -581 Descending Kansas Center
Mon 12:51:45 PM 39.0792 -95.7153 260° West 467 537 35,900 -1,790 Descending Kansas Center
Mon 12:52:47 PM 39.0564 -95.8769 260° West 477 549 33,300 -2,976 Descending Kansas Center
Mon 12:53:50 PM 39.0344 -96.0375 260° West 478 550 29,700 -3,744 Descending Kansas Center
Mon 12:54:52 PM 39.0069 -96.2208 259° West 469 540 25,500 -2,903 Descending Kansas Center
Mon 12:55:54 PM 38.9867 -96.3722 260° West 454 522 23,700 -2,419 Descending Kansas Center
Mon 12:56:56 PM 38.9606 -96.5300 258° West 435 501 20,500 -3,097 Descending Kansas Center
Mon 12:57:58 PM 38.9378 -96.6825 259° West 436 502 17,300 -3,456 Descending Kansas Center
Mon 12:59:01 PM 38.9147 -96.8503 260° West 411 473 13,300 -3,216 Descending Kansas Center
Mon 01:00:03 PM 38.8953 -96.9808 259° West 354 407 10,600 -2,177 Descending Kansas Center
Mon 01:01:05 PM 38.8775 -97.0892 258° West 297 342 8,800 -1,790 Descending Kansas Center
Mon 01:02:07 PM 38.8619 -97.1936 259° West 287 330 6,900 -1,355 Descending Kansas Center
Mon 01:03:09 PM 38.8458 -97.3003 259° West 290 334 6,000 -435 Descending Kansas Center
Mon 01:04:11 PM 38.8406 -97.3900 266° West 266 306 6,000 -484 Level Kansas Center
Mon 01:05:13 PM 38.8556 -97.4850 281° West 260 299 5,000 -919 Descending Kansas Center
Mon 01:06:15 PM 38.8708 -97.5664 284° West 226 260 4,100 -919 Descending Kansas Center
Mon 01:07:17 PM 38.8764 -97.6206 278° West 148 170 3,100 -968 Descending Kansas Center
Mon 01:08:19 PM 38.8531 -97.6461 220° Southwest 108 124 2,100 -629 Descending Kansas Center
Mon 01:09:21 PM 38.8233 -97.6450 178° South 106 122 1,800 -290 Descending Kansas Center

Login

Don't have an account? Register now (free) for customized features, flight alerts, and more!